Impacts TAF Board
For situational awareness. Not to be used for flight planning purposes.
IDs:

KORD - Chicago/O'Hare Intl, IL, US

Issued at 0735 UTC 25 May 2020
Updated at 0825 UTC 25 May 2020
Potential Impact None Slight Moderate High
Time0751Z 25/09Z 25/10Z 25/11Z 25/12Z 25/13Z 25/14Z 25/15Z 25/16Z 25/17Z 25/18Z 25/19Z 25/20Z 25/21Z>>
Type OBS PRVL
  [TEMP]  
PRVL
  [TEMP]  
PRVL PRVL PRVL PRVL PRVL PRVL PRVL PRVL PRVL PRVL PRVL
VIS 10 >6 >6 >6 >6 >6 >6 >6 >6 >6 >6 >6 >6 >6
CIG 250 250
  [20]  
250
  [20]  
250 250 100 100 100 100 100 100 100 100 100
Cover BKN BKN
  [BKN]  
BKN
  [BKN]  
BKN BKN BKN BKN BKN BKN BKN BKN BKN BKN BKN
FltCat VFR VFR
  [MVFR]  
VFR
  [MVFR]  
VFR VFR VFR VFR VFR VFR VFR VFR VFR VFR VFR
WX -- --
  [-SHRA]  
--
  [-SHRA]  
-- -- -- -- -- -- -- -- -- -- --
WDir 180 190
[190]
190
[190]
190 190 210 210 210 210 210 210 210 210 210
WSpd 9 10
  [10]  
10
  [10]  
10 10 11 11 11 11 11 11 11 11 11
WGst -- --
  [--]  
--
  [--]  
-- -- -- -- -- -- -- -- -- -- --
Raw TAF
KORD 250735Z 2508/2612 19010KT P6SM SCT020 BKN250
  TEMPO 2509/2511 -SHRA BKN020
  FM251300 21011KT P6SM SCT050 BKN100
  FM260100 18007KT P6SM FEW045 SCT250


Raw METAR
KORD 250751Z 18009KT 10SM BKN250 22/18 A2990 RMK AO2 SLP120 T02170183 $
KORD 250651Z 19010G15KT 10SM BKN250 22/19 A2992 RMK AO2 SLP125 T02220183 $
KORD 250551Z 17006KT 10SM BKN250 23/18 A2991 RMK AO2 SLP121 T02330183 10294 20233 403220178 55002 $

METAR Board
Radar Display
Forecast Discussion
For situational awareness. Not to be used for flight planning purposes.